Time;durP1;ratioP1;P1;durP2;ratioP2;P2;SDS_P1;SDS_P2;PMS_P1;PMS_P2;Temp;Humidity;BMP_temperature;BMP_pressure;BME280_temperature;BME280_humidity;BME280_pressure;Samples;Min_cycle;Max_cycle;Signal;HPM_P1;HPM_P2
2024/03/10 00:01:58;;;;;;;31.08;14.57;;;230.80;2252.80;;;;;;5072790;28;20037;-76
2024/03/10 00:04:27;;;;;;;25.30;14.50;;;230.80;2252.80;;;;;;5072475;28;20040;-76
2024/03/10 00:06:53;;;;;;;28.10;15.35;;;230.80;2252.80;;;;;;5069537;28;20051;-86
2024/03/10 00:09:19;;;;;;;28.23;16.00;;;230.80;2252.80;;;;;;5065966;28;20370;-78
2024/03/10 00:11:44;;;;;;;25.20;14.40;;;230.80;2252.80;;;;;;5072434;28;20020;-74
2024/03/10 00:14:10;;;;;;;31.50;14.95;;;230.80;2252.80;;;;;;5069169;28;20028;-73
2024/03/10 00:16:36;;;;;;;31.85;14.77;;;230.80;2252.80;;;;;;5075967;28;20381;-74
2024/03/10 00:19:05;;;;;;;25.58;13.65;;;230.90;2252.80;;;;;;5078658;28;20484;-74
2024/03/10 00:21:33;;;;;;;25.05;13.85;;;230.90;2252.80;;;;;;5072108;28;20029;-72
2024/03/10 00:24:00;;;;;;;27.67;14.95;;;230.90;2252.80;;;;;;5072554;28;20033;-73
2024/03/10 00:26:27;;;;;;;27.20;14.15;;;230.90;2252.80;;;;;;5069207;28;20465;-73
2024/03/10 00:28:53;;;;;;;27.15;14.18;;;230.90;2252.80;;;;;;5085773;28;20024;-73
2024/03/10 00:31:19;;;;;;;25.15;13.88;;;230.90;2252.80;;;;;;5078684;28;20045;-75
2024/03/10 00:33:46;;;;;;;22.58;12.40;;;231.00;2252.80;;;;;;5067555;28;20103;-73
2024/03/10 00:36:12;;;;;;;29.05;13.77;;;231.00;2252.80;;;;;;5069843;28;20071;-74
2024/03/10 00:38:38;;;;;;;21.40;11.32;;;231.00;2252.80;;;;;;5061339;28;20414;-75
2024/03/10 00:41:04;;;;;;;;;;;231.00;2252.80;;;;;;5072373;28;20032;-73
2024/03/10 00:43:31;;;;;;;22.77;12.95;;;231.00;2252.80;;;;;;5074393;28;19955;-73
2024/03/10 00:45:57;;;;;;;26.65;13.43;;;230.90;2252.80;;;;;;5071584;28;20044;-77
2024/03/10 00:48:23;;;;;;;30.77;14.35;;;230.90;2252.80;;;;;;5077936;28;20028;-74
2024/03/10 00:50:49;;;;;;;29.00;14.27;;;230.90;2252.80;;;;;;5064675;28;20028;-76
2024/03/10 00:53:15;;;;;;;24.40;12.98;;;230.90;2252.80;;;;;;5064698;28;20153;-79
2024/03/10 00:55:43;;;;;;;22.55;12.48;;;230.90;2252.80;;;;;;5074483;28;20020;-74
2024/03/10 00:58:12;;;;;;;22.67;13.38;;;230.90;2252.80;;;;;;5062310;28;20056;-73
2024/03/10 01:00:38;;;;;;;23.65;13.10;;;230.90;2252.80;;;;;;5086749;28;20461;-73
2024/03/10 01:03:09;;;;;;;22.83;14.15;;;230.90;2252.80;;;;;;5058427;28;20048;-73
2024/03/10 01:05:35;;;;;;;27.15;14.65;;;231.00;2252.80;;;;;;5068211;28;20032;-75
2024/03/10 01:08:01;;;;;;;24.55;12.07;;;231.00;2252.80;;;;;;5068031;28;20072;-73
2024/03/10 01:10:27;;;;;;;25.75;14.73;;;231.00;2252.80;;;;;;5065923;28;20481;-74
2024/03/10 01:12:55;;;;;;;24.13;13.73;;;231.00;2252.80;;;;;;5066102;28;20031;-74
2024/03/10 01:15:21;;;;;;;26.88;14.57;;;231.00;2252.80;;;;;;5072813;28;20024;-73
2024/03/10 01:17:48;;;;;;;24.73;12.82;;;231.00;2252.80;;;;;;5074032;28;20460;-73
2024/03/10 01:20:13;;;;;;;25.15;16.02;;;230.90;2252.80;;;;;;5068744;28;20568;-73
2024/03/10 01:22:42;;;;;;;33.05;15.23;;;231.10;2252.80;;;;;;5065405;28;20016;-74
2024/03/10 01:25:08;;;;;;;28.60;14.27;;;231.10;2252.80;;;;;;5066625;28;20035;-74
2024/03/10 01:27:36;;;;;;;26.48;13.30;;;231.10;2252.80;;;;;;5072639;28;20095;-73
2024/03/10 01:30:03;;;;;;;23.58;12.80;;;231.00;2252.80;;;;;;5072702;28;20049;-74
2024/03/10 01:32:29;;;;;;;27.10;14.15;;;231.10;2252.80;;;;;;5071500;28;20174;-73
2024/03/10 01:34:55;;;;;;;29.55;14.68;;;231.10;2252.80;;;;;;5072812;28;20127;-73
2024/03/10 01:37:21;;;;;;;25.60;12.85;;;231.10;2252.80;;;;;;5072924;28;20078;-73
2024/03/10 01:39:47;;;;;;;24.50;13.30;;;231.10;2252.80;;;;;;5073498;28;20468;-74
2024/03/10 01:42:13;;;;;;;;;;;231.10;2252.80;;;;;;5077211;28;20448;-73
2024/03/10 01:44:39;;;;;;;28.90;13.98;;;231.00;2252.80;;;;;;5076745;28;19916;-73
2024/03/10 01:47:06;;;;;;;29.02;16.20;;;231.00;2252.80;;;;;;5076563;28;20017;-74
2024/03/10 01:49:34;;;;;;;25.52;13.07;;;231.00;2252.80;;;;;;5076315;28;20021;-74
2024/03/10 01:52:01;;;;;;;32.28;15.95;;;231.00;2252.80;;;;;;5076419;28;20028;-75
2024/03/10 01:54:34;;;;;;;26.90;14.52;;;231.00;2252.80;;;;;;5076549;28;20096;-74
2024/03/10 01:57:04;;;;;;;24.77;13.65;;;231.00;2252.80;;;;;;5062466;28;20024;-74
2024/03/10 01:59:31;;;;;;;32.15;14.98;;;230.90;2252.80;;;;;;5075519;28;20107;-73
2024/03/10 02:01:58;;;;;;;27.85;12.50;;;230.90;2252.80;;;;;;5075997;28;20020;-73
2024/03/10 02:04:24;;;;;;;24.02;13.10;;;230.90;2252.80;;;;;;5075923;28;20034;-73
2024/03/10 02:06:52;;;;;;;28.73;13.75;;;230.90;2252.80;;;;;;5076130;28;20025;-74
2024/03/10 02:09:18;;;;;;;24.42;12.85;;;230.90;2252.80;;;;;;5076110;28;20028;-74
2024/03/10 02:11:44;;;;;;;22.67;11.90;;;230.90;2252.80;;;;;;5076107;28;20083;-75
2024/03/10 02:14:10;;;;;;;23.70;12.60;;;231.30;2252.80;;;;;;5076015;28;20081;-74
2024/03/10 02:16:36;;;;;;;24.85;14.55;;;230.90;2252.80;;;;;;5076097;28;20016;-75
2024/03/10 02:19:03;;;;;;;23.92;13.98;;;231.00;2252.80;;;;;;5075853;28;20028;-73
2024/03/10 02:21:29;;;;;;;22.50;13.35;;;231.00;2252.80;;;;;;5075980;28;20081;-75
2024/03/10 02:24:16;;;;;;;23.88;13.55;;;231.00;2252.80;;;;;;5074435;28;20127;-73
2024/03/10 02:26:46;;;;;;;25.58;12.25;;;231.00;2252.80;;;;;;5075968;28;20354;-73
2024/03/10 02:29:18;;;;;;;26.58;12.75;;;231.00;2252.80;;;;;;5075436;28;20020;-74
2024/03/10 02:48:12;;;;;;;23.90;12.48;;;231.00;2252.80;;;;;;5063195;28;20027;-75
2024/03/10 02:50:38;;;;;;;26.30;12.88;;;230.90;2252.80;;;;;;5075273;28;20021;-74
2024/03/10 02:53:04;;;;;;;23.63;14.10;;;230.90;2252.80;;;;;;5075574;28;20065;-73
2024/03/10 02:55:32;;;;;;;24.05;13.57;;;230.90;2252.80;;;;;;5075950;28;20502;-74
2024/03/10 02:58:06;;;;;;;23.02;12.70;;;230.90;2252.80;;;;;;5077877;28;20017;-73
2024/03/10 03:00:33;;;;;;;28.33;14.38;;;230.90;2252.80;;;;;;5077473;28;20088;-75
2024/03/10 03:03:03;;;;;;;27.38;14.30;;;230.90;2252.80;;;;;;5075323;28;20017;-79
2024/03/10 03:05:30;;;;;;;26.55;13.98;;;230.90;2252.80;;;;;;5074972;28;20016;-73
2024/03/10 03:07:59;;;;;;;27.80;14.90;;;230.90;2252.80;;;;;;5075271;28;20059;-75
2024/03/10 03:10:26;;;;;;;21.15;12.55;;;230.90;2252.80;;;;;;5074777;28;20024;-73
2024/03/10 03:12:53;;;;;;;21.42;12.82;;;230.90;2252.80;;;;;;5073834;28;20419;-75
2024/03/10 03:15:19;;;;;;;23.65;13.45;;;230.90;2252.80;;;;;;5072745;28;20044;-76
2024/03/10 03:17:45;;;;;;;30.45;13.57;;;230.90;2252.80;;;;;;5075138;28;20078;-74
2024/03/10 03:20:20;;;;;;;26.15;13.60;;;230.80;2252.80;;;;;;5074595;28;20047;-73
2024/03/10 03:22:47;;;;;;;26.63;13.45;;;230.80;2252.80;;;;;;5074854;28;20031;-74
2024/03/10 03:25:14;;;;;;;20.75;13.07;;;230.80;2252.80;;;;;;5080818;28;20105;-74
2024/03/10 03:27:47;;;;;;;25.50;12.98;;;230.80;2252.80;;;;;;5081852;28;20095;-74
2024/03/10 03:30:13;;;;;;;24.30;13.70;;;230.80;2252.80;;;;;;5074555;28;20055;-76
2024/03/10 03:32:39;;;;;;;23.20;13.00;;;230.80;2252.80;;;;;;5073289;28;20032;-74
2024/03/10 03:35:05;;;;;;;24.65;12.05;;;230.80;2252.80;;;;;;5074491;28;20025;-74
2024/03/10 03:37:31;;;;;;;24.98;12.45;;;230.80;2252.80;;;;;;5074510;28;20165;-75
2024/03/10 03:39:57;;;;;;;21.70;12.82;;;230.80;2252.80;;;;;;5074150;28;20062;-74
2024/03/10 03:42:23;;;;;;;25.83;14.10;;;230.80;2252.80;;;;;;5074434;28;20020;-74
2024/03/10 03:44:49;;;;;;;23.45;13.30;;;230.80;2252.80;;;;;;5074490;28;20036;-75
2024/03/10 03:47:18;;;;;;;25.13;12.88;;;230.80;2252.80;;;;;;5074211;28;20017;-74
2024/03/10 03:49:47;;;;;;;23.23;13.15;;;230.80;2252.80;;;;;;5061262;28;20025;-74
2024/03/10 03:52:13;;;;;;;20.80;13.32;;;230.70;2252.80;;;;;;5074177;28;20027;-74
2024/03/10 03:54:41;;;;;;;25.13;13.32;;;230.70;2252.80;;;;;;5074186;28;20400;-74
2024/03/10 03:57:07;;;;;;;24.88;14.07;;;230.70;2252.80;;;;;;5074178;28;20428;-74
2024/03/10 03:59:33;;;;;;;25.38;12.75;;;230.70;2252.80;;;;;;5073948;28;20108;-74
2024/03/10 04:02:00;;;;;;;23.80;12.45;;;230.50;2252.80;;;;;;5073577;28;20043;-73
2024/03/10 04:04:26;;;;;;;26.30;13.38;;;230.70;2252.80;;;;;;5073564;28;20025;-74
2024/03/10 04:06:53;;;;;;;24.02;12.68;;;230.70;2252.80;;;;;;5073971;28;20491;-73
2024/03/10 04:09:19;;;;;;;25.35;13.77;;;230.70;2252.80;;;;;;5073899;28;20385;-73
2024/03/10 04:11:45;;;;;;;24.98;13.82;;;230.70;2252.80;;;;;;5073824;28;20027;-74
2024/03/10 04:14:11;;;;;;;24.55;14.07;;;230.60;2252.80;;;;;;5073992;28;20036;-73
2024/03/10 04:16:38;;;;;;;25.63;14.65;;;230.60;2252.80;;;;;;5073697;28;20032;-74
2024/03/10 04:19:04;;;;;;;25.67;13.10;;;230.60;2252.80;;;;;;5073732;28;20149;-73
2024/03/10 04:21:33;;;;;;;26.17;13.27;;;230.60;2252.80;;;;;;5073277;28;20562;-73
2024/03/10 04:23:59;;;;;;;30.17;15.73;;;230.60;2252.80;;;;;;5072223;28;20041;-74
2024/03/10 04:26:27;;;;;;;28.23;14.95;;;230.60;2252.80;;;;;;5073559;28;20113;-74
2024/03/10 04:28:54;;;;;;;25.30;13.85;;;230.60;2252.80;;;;;;5073659;28;20020;-73
2024/03/10 04:31:20;;;;;;;25.38;13.38;;;230.60;2252.80;;;;;;5073175;28;20041;-73
2024/03/10 04:33:46;;;;;;;26.67;15.25;;;230.60;2252.80;;;;;;5073514;28;20025;-73
2024/03/10 04:36:12;;;;;;;;;;;230.60;2252.80;;;;;;5073828;28;20085;-73
2024/03/10 04:38:38;;;;;;;26.75;14.27;;;230.60;2252.80;;;;;;5073469;28;20258;-74
2024/03/10 04:41:05;;;;;;;20.42;12.20;;;230.60;2252.80;;;;;;5073358;28;20028;-72
2024/03/10 04:43:31;;;;;;;29.48;14.88;;;230.60;2252.80;;;;;;5073457;28;20020;-74
2024/03/10 04:45:57;;;;;;;25.25;13.27;;;230.70;2252.80;;;;;;5073070;28;20070;-74
2024/03/10 04:48:23;;;;;;;24.25;13.60;;;230.70;2252.80;;;;;;5073540;28;20017;-73
2024/03/10 04:50:49;;;;;;;28.83;13.15;;;230.70;2252.80;;;;;;5073100;28;20032;-73
2024/03/10 04:53:15;;;;;;;22.35;13.57;;;230.80;2252.80;;;;;;5073304;28;20028;-74
2024/03/10 04:55:41;;;;;;;26.35;14.32;;;230.80;2252.80;;;;;;5073028;28;20101;-74
2024/03/10 04:58:08;;;;;;;24.95;14.27;;;230.80;2252.80;;;;;;5073285;28;20024;-73
2024/03/10 05:00:33;;;;;;;29.38;14.45;;;230.80;2252.80;;;;;;5073234;28;20392;-74
2024/03/10 05:03:05;;;;;;;25.92;13.98;;;230.90;2252.80;;;;;;5073188;28;20031;-73
2024/03/10 05:05:31;;;;;;;25.38;14.15;;;230.90;2252.80;;;;;;5071717;28;20499;-73
2024/03/10 05:07:57;;;;;;;25.10;13.02;;;231.30;2252.80;;;;;;5073291;28;20031;-72
2024/03/10 05:10:23;;;;;;;26.42;14.38;;;230.90;2252.80;;;;;;5072997;28;20024;-74
2024/03/10 05:12:49;;;;;;;;;;;230.90;2252.80;;;;;;5073539;28;20116;-73
2024/03/10 05:15:15;;;;;;;28.45;14.27;;;231.00;2252.80;;;;;;5074431;28;19912;-74
2024/03/10 05:17:41;;;;;;;25.35;15.00;;;231.00;2252.80;;;;;;5075954;28;20021;-74
2024/03/10 05:20:09;;;;;;;24.10;13.07;;;231.00;2252.80;;;;;;5075091;28;20104;-79
2024/03/10 05:22:39;;;;;;;22.13;13.88;;;231.00;2252.80;;;;;;5073728;28;20100;-73
2024/03/10 05:25:08;;;;;;;23.58;13.57;;;231.00;2252.80;;;;;;5079256;28;20059;-73
2024/03/10 05:27:35;;;;;;;26.23;14.50;;;231.00;2252.80;;;;;;5066410;28;20029;-74
2024/03/10 05:30:02;;;;;;;28.73;15.40;;;231.00;2252.80;;;;;;5065285;28;20037;-74
2024/03/10 05:32:28;;;;;;;26.77;14.95;;;231.00;2252.80;;;;;;5074488;28;20031;-74
2024/03/10 05:34:56;;;;;;;25.90;14.38;;;231.00;2252.80;;;;;;5077754;28;20027;-73
2024/03/10 05:37:24;;;;;;;31.17;15.45;;;231.00;2252.80;;;;;;5078349;28;20052;-74
2024/03/10 05:39:50;;;;;;;26.42;14.43;;;231.00;2252.80;;;;;;5083034;28;20103;-73
2024/03/10 05:42:16;;;;;;;26.50;14.63;;;231.00;2252.80;;;;;;5067998;28;20095;-74
2024/03/10 05:44:42;;;;;;;23.13;14.35;;;231.10;2252.80;;;;;;5072518;28;20499;-73
2024/03/10 05:47:08;;;;;;;27.45;15.13;;;231.10;2252.80;;;;;;5073136;28;20081;-73
2024/03/10 05:49:34;;;;;;;23.70;14.85;;;231.10;2252.80;;;;;;5077268;28;20048;-74
2024/03/10 05:52:00;;;;;;;26.73;14.57;;;231.10;2252.80;;;;;;5074889;28;20020;-74
2024/03/10 05:54:26;;;;;;;24.38;14.88;;;231.20;2252.80;;;;;;5071508;28;20025;-73
2024/03/10 05:56:52;;;;;;;24.02;14.52;;;231.20;2252.80;;;;;;5066176;28;20483;-73
2024/03/10 05:59:18;;;;;;;;;;;231.20;2252.80;;;;;;5080765;28;20050;-78
2024/03/10 06:01:45;;;;;;;28.98;14.23;;;231.30;2252.80;;;;;;5067915;28;19912;-74
2024/03/10 06:04:11;;;;;;;25.50;14.07;;;231.30;2252.80;;;;;;5068613;28;20028;-74
2024/03/10 06:06:38;;;;;;;23.98;13.20;;;231.30;2252.80;;;;;;5074562;28;20024;-75
2024/03/10 06:09:05;;;;;;;26.35;14.27;;;256.00;2252.80;;;;;;5073846;28;20024;-73
2024/03/10 06:11:32;;;;;;;25.63;14.38;;;256.10;2252.80;;;;;;5075733;28;20028;-74
2024/03/10 06:13:58;;;;;;;25.55;14.65;;;256.10;2252.80;;;;;;5066800;28;20078;-74
2024/03/10 06:16:25;;;;;;;26.27;12.73;;;256.20;2252.80;;;;;;5080406;28;20020;-75
2024/03/10 06:27:03;;;;;;;21.88;14.23;;;256.30;2252.80;;;;;;5065475;28;20032;-74
2024/03/10 06:29:29;;;;;;;25.90;13.60;;;256.40;2252.80;;;;;;5070394;28;20035;-74
2024/03/10 06:31:56;;;;;;;23.00;14.13;;;256.50;2252.80;;;;;;5081809;28;20040;-75
2024/03/10 06:34:22;;;;;;;25.05;13.40;;;256.50;2252.80;;;;;;5065653;28;20074;-73
2024/03/10 06:36:48;;;;;;;20.40;12.20;;;256.50;2252.80;;;;;;5079960;28;20028;-74
2024/03/10 06:39:19;;;;;;;21.75;12.52;;;256.60;2252.80;;;;;;5078878;28;20024;-80
2024/03/10 06:41:45;;;;;;;24.90;13.13;;;256.70;2252.80;;;;;;5071149;28;20021;-74
2024/03/10 06:44:11;;;;;;;19.48;11.13;;;256.80;2252.80;;;;;;5064539;28;20064;-75
2024/03/10 06:46:36;;;;;;;23.25;12.43;;;256.90;2252.80;;;;;;5084351;28;20456;-75
2024/03/10 06:49:02;;;;;;;;;;;256.90;2252.80;;;;;;5071338;28;20033;-74
2024/03/10 06:51:28;;;;;;;23.92;12.80;;;281.70;2278.40;;;;;;5075190;28;19909;-74
2024/03/10 06:53:54;;;;;;;20.15;12.23;;;281.70;2278.40;;;;;;5079042;28;20478;-73
2024/03/10 06:56:20;;;;;;;;;;;281.80;2278.40;;;;;;5077977;28;20492;-74
2024/03/10 06:58:51;;;;;;;22.67;10.20;;;281.90;2278.40;;;;;;5076754;28;19916;-73
2024/03/10 07:01:21;;;;;;;23.05;12.07;;;282.00;2278.40;;;;;;5072550;28;20024;-74
2024/03/10 07:03:48;;;;;;;22.17;11.35;;;282.00;2278.40;;;;;;5065199;28;20123;-80
2024/03/10 07:06:15;;;;;;;18.15;10.95;;;282.20;2278.40;;;;;;5069709;28;20056;-74
2024/03/10 07:08:44;;;;;;;17.38;11.88;;;282.30;2278.40;;;;;;5073837;28;20028;-75
2024/03/10 07:11:10;;;;;;;18.70;12.43;;;282.30;2278.40;;;;;;5071349;28;20081;-74
2024/03/10 07:13:40;;;;;;;18.20;10.75;;;282.20;2278.40;;;;;;5076572;28;20551;-75
2024/03/10 07:16:06;;;;;;;18.85;11.05;;;282.30;2278.40;;;;;;5073545;28;20456;-76
2024/03/10 07:18:32;;;;;;;17.88;11.15;;;282.30;2278.40;;;;;;5061182;28;20390;-75
2024/03/10 07:20:58;;;;;;;24.13;13.25;;;282.40;2278.40;;;;;;5073615;28;20040;-75
2024/03/10 07:23:24;;;;;;;23.60;12.48;;;282.50;2278.40;;;;;;5080857;28;20446;-73
2024/03/10 07:25:50;;;;;;;;;;;282.50;2278.40;;;;;;5071191;28;20531;-75
2024/03/10 07:28:16;;;;;;;21.75;11.30;;;282.50;2278.40;;;;;;5076788;28;19904;-76
2024/03/10 07:30:42;;;;;;;16.75;10.77;;;307.20;2304.00;;;;;;5076319;28;20083;-80
2024/03/10 07:33:07;;;;;;;20.23;11.27;;;282.50;2278.40;;;;;;5079834;28;20121;-76
2024/03/10 07:35:34;;;;;;;19.33;10.18;;;307.20;2304.00;;;;;;5077430;28;20372;-75
2024/03/10 07:38:00;;;;;;;25.83;11.90;;;307.30;2304.00;;;;;;5070853;28;20381;-74
2024/03/10 07:40:27;;;;;;;22.92;11.40;;;307.30;2304.00;;;;;;5097051;28;20036;-76
2024/03/10 07:42:53;;;;;;;23.05;10.15;;;307.30;2304.00;;;;;;5088504;28;20176;-75
2024/03/10 07:45:19;;;;;;;22.92;12.68;;;307.30;2304.00;;;;;;5075078;28;20128;-75
2024/03/10 07:47:46;;;;;;;20.63;12.18;;;307.30;2304.00;;;;;;5068458;28;20096;-74
2024/03/10 07:50:17;;;;;;;23.13;12.98;;;307.40;2304.00;;;;;;5086041;28;20102;-75
2024/03/10 07:52:45;;;;;;;17.52;10.48;;;307.50;2304.00;;;;;;5067885;28;20035;-75
2024/03/10 07:55:11;;;;;;;22.48;11.73;;;307.50;2304.00;;;;;;5088259;28;20026;-75
2024/03/10 07:57:40;;;;;;;19.08;10.50;;;307.60;2304.00;;;;;;5075141;28;20424;-75
2024/03/10 08:00:16;;;;;;;18.05;11.40;;;307.70;2304.00;;;;;;5085040;28;20103;-75
2024/03/10 08:02:42;;;;;;;;;;;307.80;2304.00;;;;;;5067499;28;20040;-75
2024/03/10 08:05:12;;;;;;;19.30;10.37;;;307.80;2304.00;;;;;;5067048;28;19962;-76
2024/03/10 08:07:39;;;;;;;19.67;11.65;;;307.90;2304.00;;;;;;5071402;28;20028;-76
2024/03/10 08:10:08;;;;;;;18.00;10.07;;;307.80;2304.00;;;;;;5060537;28;20048;-75
2024/03/10 08:12:34;;;;;;;17.00;10.27;;;308.00;2304.00;;;;;;5073126;28;20490;-76
2024/03/10 08:15:02;;;;;;;18.58;11.60;;;308.10;2304.00;;;;;;5080154;28;20032;-76
2024/03/10 08:17:28;;;;;;;18.02;11.25;;;333.10;2329.60;;;;;;5063655;28;20055;-75
2024/03/10 08:19:54;;;;;;;19.55;10.25;;;333.70;2329.60;;;;;;5072355;28;20036;-75
2024/03/10 08:22:20;;;;;;;14.30;9.77;;;358.40;2329.60;;;;;;5075385;28;20025;-76
2024/03/10 08:24:46;;;;;;;17.50;9.15;;;358.60;2329.60;;;;;;5061426;28;20048;-76
2024/03/10 08:27:12;;;;;;;20.42;11.02;;;358.80;2329.60;;;;;;5078251;28;20480;-75
2024/03/10 08:29:39;;;;;;;21.85;11.32;;;359.00;2329.60;;;;;;5066347;28;20049;-74
2024/03/10 08:32:06;;;;;;;33.13;17.63;;;359.10;2329.60;;;;;;5077899;28;20536;-76
2024/03/10 08:34:31;;;;;;;36.60;20.92;;;359.30;2329.60;;;;;;5071873;28;20040;-75
2024/03/10 08:37:02;;;;;;;30.98;16.52;;;384.00;2329.60;;;;;;5085200;28;20048;-76
2024/03/10 08:39:30;;;;;;;37.38;20.83;;;384.00;2329.60;;;;;;5064351;28;20052;-75
2024/03/10 08:41:56;;;;;;;22.73;13.88;;;384.00;2329.60;;;;;;5074222;28;20035;-76
2024/03/10 08:44:22;;;;;;;18.27;10.35;;;384.10;2329.60;;;;;;5077510;28;20036;-75
2024/03/10 08:46:50;;;;;;;21.60;11.23;;;384.30;2329.60;;;;;;5062051;28;20016;-76
2024/03/10 08:49:17;;;;;;;31.95;16.08;;;384.40;2329.60;;;;;;5078479;28;20375;-78
2024/03/10 08:51:43;;;;;;;20.10;11.13;;;384.60;2329.60;;;;;;5072545;28;20111;-77
2024/03/10 08:54:09;;;;;;;17.15;9.57;;;384.90;2329.60;;;;;;5070407;28;20116;-78
2024/03/10 08:56:40;;;;;;;17.23;8.93;;;409.70;2355.20;;;;;;5073259;28;20035;-77
2024/03/10 08:59:11;;;;;;;22.70;12.57;;;409.90;2355.20;;;;;;5074663;28;20025;-77
2024/03/10 09:01:39;;;;;;;15.38;9.70;;;409.70;2355.20;;;;;;5069114;28;20112;-77
2024/03/10 09:04:07;;;;;;;39.47;21.98;;;409.70;2355.20;;;;;;5066939;28;20040;-77
2024/03/10 09:06:36;;;;;;;26.92;15.13;;;409.80;2355.20;;;;;;5069637;28;20500;-76
2024/03/10 09:09:04;;;;;;;54.00;24.05;;;409.70;2355.20;;;;;;5065038;28;20458;-77
2024/03/10 09:11:31;;;;;;;35.47;17.83;;;409.90;2355.20;;;;;;5060623;28;20044;-76
2024/03/10 09:14:00;;;;;;;18.95;10.20;;;410.00;2355.20;;;;;;5063858;28;20413;-77
2024/03/10 09:16:26;;;;;;;20.33;11.50;;;410.30;2355.20;;;;;;5073970;28;20009;-76
2024/03/10 09:18:53;;;;;;;25.67;15.40;;;435.20;2355.20;;;;;;5059736;28;20125;-78
2024/03/10 09:21:18;;;;;;;22.85;11.68;;;435.40;2355.20;;;;;;5077735;28;20023;-74
2024/03/10 09:23:44;;;;;;;16.58;10.98;;;435.40;2355.20;;;;;;5066929;28;20044;-75
2024/03/10 09:26:14;;;;;;;23.60;12.07;;;435.30;2355.20;;;;;;5077132;28;20025;-77
2024/03/10 09:28:44;;;;;;;28.73;15.73;;;435.50;2355.20;;;;;;5073250;28;20384;-76
2024/03/10 09:31:14;;;;;;;23.55;12.68;;;435.60;2355.20;;;;;;5075102;28;20049;-75
2024/03/10 09:33:46;;;;;;;12.70;8.85;;;435.60;2355.20;;;;;;5076681;28;20017;-78
2024/03/10 09:36:12;;;;;;;17.45;10.05;;;435.30;2355.20;;;;;;5073660;28;20024;-77
2024/03/10 09:38:38;;;;;;;19.10;10.02;;;435.30;2355.20;;;;;;5076915;28;20031;-76
2024/03/10 09:41:08;;;;;;;19.52;9.68;;;435.30;2355.20;;;;;;5072668;28;20021;-78
2024/03/10 09:43:36;;;;;;;18.08;10.52;;;435.60;2355.20;;;;;;5068635;28;20029;-76
2024/03/10 09:46:02;;;;;;;13.95;9.75;;;435.60;2355.20;;;;;;5077825;28;20024;-76
2024/03/10 09:48:29;;;;;;;19.75;11.00;;;435.50;2355.20;;;;;;5073108;28;20025;-76
2024/03/10 09:50:56;;;;;;;16.70;9.65;;;435.50;2355.20;;;;;;5079292;28;20090;-75
2024/03/10 09:53:23;;;;;;;21.80;10.05;;;435.60;2355.20;;;;;;5079906;28;20028;-78
2024/03/10 09:55:49;;;;;;;14.32;9.60;;;435.80;2355.20;;;;;;5079216;28;20028;-76
2024/03/10 09:58:18;;;;;;;16.77;9.38;;;435.80;2355.20;;;;;;5067377;28;20025;-75
2024/03/10 10:00:45;;;;;;;13.73;9.20;;;435.60;2355.20;;;;;;5069488;28;20028;-77
2024/03/10 10:03:15;;;;;;;16.90;9.77;;;435.50;2355.20;;;;;;5068244;28;20030;-76
2024/03/10 10:05:52;;;;;;;22.27;11.52;;;435.40;2355.20;;;;;;5075033;28;20060;-75
2024/03/10 10:08:19;;;;;;;28.00;14.25;;;435.50;2355.20;;;;;;5074571;28;20045;-76
2024/03/10 10:10:52;;;;;;;20.77;12.82;;;435.20;2355.20;;;;;;5078210;28;20037;-77
2024/03/10 10:13:25;;;;;;;17.23;9.68;;;435.30;2355.20;;;;;;5077066;28;20470;-76
2024/03/10 10:15:54;;;;;;;14.45;9.00;;;435.20;2355.20;;;;;;5076872;28;20033;-76
2024/03/10 10:18:21;;;;;;;15.52;8.90;;;435.30;2355.20;;;;;;5064678;28;20024;-76
2024/03/10 10:20:53;;;;;;;13.43;10.52;;;435.50;2355.20;;;;;;5066891;28;20048;-76
2024/03/10 10:23:23;;;;;;;22.10;9.88;;;435.60;2355.20;;;;;;5071316;28;20032;-76
2024/03/10 10:25:53;;;;;;;13.05;9.10;;;435.70;2355.20;;;;;;5064639;28;20040;-75
2024/03/10 10:28:19;;;;;;;13.18;8.00;;;435.70;2355.20;;;;;;5060362;28;20036;-75
2024/03/10 10:30:45;;;;;;;13.55;8.38;;;435.70;2355.20;;;;;;5075292;28;20080;-77
2024/03/10 10:33:15;;;;;;;20.88;8.48;;;436.10;2355.20;;;;;;5078843;28;20389;-76
2024/03/10 10:35:45;;;;;;;14.45;8.35;;;436.10;2355.20;;;;;;5067799;28;20070;-76
2024/03/10 10:38:12;;;;;;;20.73;9.90;;;436.10;2355.20;;;;;;5066133;28;20119;-76
2024/03/10 10:40:51;;;;;;;18.67;8.60;;;460.80;2380.80;;;;;;5063955;28;20017;-75
2024/03/10 10:43:17;;;;;;;19.95;9.13;;;436.10;2355.20;;;;;;5081514;28;20398;-76
2024/03/10 10:45:44;;;;;;;19.02;7.82;;;436.10;2355.20;;;;;;5084799;28;20089;-76
2024/03/10 10:48:11;;;;;;;13.85;9.27;;;436.10;2355.20;;;;;;5072973;28;20441;-76
2024/03/10 10:50:42;;;;;;;19.20;9.68;;;460.90;2380.80;;;;;;5072503;28;20488;-76
2024/03/10 10:53:11;;;;;;;16.77;9.15;;;460.90;2380.80;;;;;;5078464;28;20021;-76
2024/03/10 10:55:40;;;;;;;16.70;10.65;;;460.90;2380.80;;;;;;5077758;28;20510;-76
2024/03/10 10:58:06;;;;;;;18.42;8.63;;;461.20;2380.80;;;;;;5085733;28;20033;-76
2024/03/10 11:00:33;;;;;;;14.40;6.38;;;461.30;2380.80;;;;;;5067966;28;20029;-75
2024/03/10 11:03:22;;;;;;;12.05;6.47;;;461.30;2380.80;;;;;;5064907;28;20025;-75
2024/03/10 11:06:05;;;;;;;13.75;5.72;;;461.20;2380.80;;;;;;5071988;28;20047;-75
2024/03/10 11:08:32;;;;;;;15.60;6.60;;;461.20;2380.80;;;;;;5079641;28;20043;-72
2024/03/10 11:10:58;;;;;;;11.13;6.45;;;461.20;2380.80;;;;;;5065255;28;20032;-76
2024/03/10 11:13:28;;;;;;;14.13;7.90;;;461.30;2380.80;;;;;;5060016;28;20032;-76
2024/03/10 11:16:13;;;;;;;13.85;6.40;;;461.30;2380.80;;;;;;5085399;28;20021;-75
2024/03/10 11:18:43;;;;;;;14.63;6.25;;;461.40;2380.80;;;;;;5080330;28;20020;-80
2024/03/10 11:21:22;;;;;;;10.82;5.82;;;461.40;2380.80;;;;;;5058963;28;20017;-77
2024/03/10 11:23:50;;;;;;;12.18;6.57;;;461.40;2380.80;;;;;;5080471;28;20474;-75
2024/03/10 11:26:24;;;;;;;16.58;6.80;;;461.40;2380.80;;;;;;5070470;28;20040;-75
2024/03/10 11:28:51;;;;;;;8.95;5.72;;;461.40;2380.80;;;;;;5073039;28;20016;-75
2024/03/10 11:31:39;;;;;;;13.27;8.05;;;461.40;2380.80;;;;;;5079231;28;20135;-77
2024/03/10 11:34:07;;;;;;;14.02;8.57;;;461.40;2380.80;;;;;;5079764;28;20044;-77
2024/03/10 11:36:35;;;;;;;16.25;7.72;;;461.50;2380.80;;;;;;5074439;28;20056;-76
2024/03/10 11:39:02;;;;;;;14.27;7.65;;;461.50;2380.80;;;;;;5076768;28;20021;-76
2024/03/10 11:41:28;;;;;;;13.43;7.45;;;461.70;2380.80;;;;;;5074103;28;20024;-77
2024/03/10 11:43:55;;;;;;;12.85;8.30;;;461.70;2380.80;;;;;;5083113;28;20044;-76
2024/03/10 11:46:24;;;;;;;11.55;6.65;;;486.40;2380.80;;;;;;5080498;28;20021;-78
2024/03/10 11:48:57;;;;;;;16.85;8.45;;;486.40;2380.80;;;;;;5085474;28;20051;-76
2024/03/10 11:51:31;;;;;;;13.32;6.90;;;486.40;2380.80;;;;;;5079073;28;20419;-76
2024/03/10 11:53:58;;;;;;;13.52;6.68;;;486.40;2380.80;;;;;;5078947;28;20025;-77
2024/03/10 11:56:25;;;;;;;9.68;5.65;;;486.40;2380.80;;;;;;5072779;28;20093;-74
2024/03/10 11:58:52;;;;;;;19.65;6.15;;;486.40;2380.80;;;;;;5071005;28;20106;-76
2024/03/10 12:01:19;;;;;;;18.52;6.80;;;486.40;2380.80;;;;;;5076858;28;20078;-75
2024/03/10 12:03:47;;;;;;;11.93;5.82;;;486.40;2380.80;;;;;;5065785;28;20539;-76
2024/03/10 12:06:14;;;;;;;10.32;6.05;;;486.50;2380.80;;;;;;5068244;28;20024;-77
2024/03/10 12:08:44;;;;;;;10.90;6.00;;;486.40;2380.80;;;;;;5066895;28;20029;-75
2024/03/10 12:11:12;;;;;;;17.30;6.65;;;486.40;2380.80;;;;;;5068377;28;20477;-77
2024/03/10 12:13:41;;;;;;;16.13;8.77;;;486.40;2380.80;;;;;;5071732;28;20025;-76
2024/03/10 12:16:08;;;;;;;10.02;6.03;;;461.60;2380.80;;;;;;5078651;28;20053;-76
2024/03/10 12:18:35;;;;;;;9.73;6.10;;;461.60;2380.80;;;;;;5078537;28;20073;-75
2024/03/10 12:21:03;;;;;;;10.25;6.60;;;461.60;2380.80;;;;;;5065488;28;20028;-75
2024/03/10 12:23:36;;;;;;;15.52;8.52;;;461.60;2380.80;;;;;;5068643;28;20066;-75
2024/03/10 12:26:11;;;;;;;13.30;7.18;;;461.70;2380.80;;;;;;5062383;28;20032;-75
2024/03/10 12:28:41;;;;;;;13.93;8.23;;;461.70;2380.80;;;;;;5070729;28;20017;-78
2024/03/10 12:31:13;;;;;;;17.23;8.98;;;486.40;2380.80;;;;;;5069105;28;20053;-77